createdAt,value
2023-04-20T00:42:23.186Z,45.30
2023-04-20T00:45:41.229Z,44.70
2023-04-20T00:48:15.070Z,44.50
2023-04-20T00:50:44.021Z,47.20
2023-04-20T01:40:27.051Z,44.90
2023-04-20T01:42:56.087Z,42.50
2023-04-20T01:45:24.481Z,43.90
2023-04-20T01:48:00.198Z,42.70
2023-04-20T01:50:31.356Z,44.50
2023-04-20T01:53:02.085Z,45.60
2023-04-20T01:55:33.859Z,46.70
2023-04-20T01:58:00.909Z,48.50
2023-04-20T02:00:28.109Z,46.20
2023-04-20T02:02:55.500Z,43.40
2023-04-20T02:05:54.835Z,45.50
2023-04-20T02:08:21.979Z,45.00
2023-04-20T02:10:49.205Z,46.30
2023-04-20T02:13:16.018Z,43.00
2023-04-20T02:15:45.490Z,45.40
2023-04-20T02:18:15.542Z,44.90
2023-04-20T02:20:43.651Z,43.70
2023-04-20T02:23:11.426Z,44.40
2023-04-20T02:25:38.268Z,44.40
2023-04-20T02:28:05.104Z,42.60
2023-04-20T02:30:32.101Z,41.20
2023-04-20T02:32:59.193Z,41.20
2023-04-20T02:35:26.340Z,40.60
2023-04-20T02:37:53.197Z,41.00
2023-04-20T02:40:20.739Z,41.30
2023-04-20T02:42:47.892Z,39.80
2023-04-20T02:45:15.480Z,39.20
2023-04-20T02:47:43.794Z,40.50
2023-04-20T02:50:11.515Z,39.10
2023-04-20T02:52:54.101Z,38.00
2023-04-20T02:55:21.074Z,38.30
2023-04-20T02:57:50.416Z,40.50
2023-04-20T03:00:18.544Z,39.80
2023-04-20T03:02:57.959Z,37.00
2023-04-20T03:05:26.691Z,39.40
2023-04-20T03:07:54.147Z,38.50
2023-04-20T03:10:21.570Z,37.50
2023-04-20T03:13:31.850Z,39.30
2023-04-20T03:16:02.408Z,36.00
2023-04-20T03:18:34.540Z,38.40
2023-04-20T03:21:01.439Z,38.00
2023-04-20T03:23:29.497Z,37.70
2023-04-20T03:25:57.550Z,39.60
2023-04-20T03:28:37.766Z,42.40
2023-04-20T03:31:06.277Z,42.60
2023-04-20T03:33:33.411Z,41.10
2023-04-20T03:36:01.342Z,41.80
2023-04-20T03:38:28.598Z,43.20
2023-04-20T03:40:55.374Z,41.20
2023-04-20T03:43:22.464Z,40.70
2023-04-20T03:45:50.132Z,42.00
2023-04-20T03:48:17.854Z,37.90
2023-04-20T03:50:44.572Z,39.50
2023-04-20T03:53:13.506Z,40.40
2023-04-20T03:55:40.821Z,39.20
2023-04-20T03:58:11.466Z,39.70
2023-04-20T04:01:08.923Z,39.60
2023-04-20T04:03:40.565Z,42.00
2023-04-20T04:06:11.009Z,42.10
2023-04-20T04:08:38.068Z,42.80
2023-04-20T04:11:05.316Z,41.30
2023-04-20T04:13:34.433Z,42.30
2023-04-20T04:16:03.076Z,41.70
2023-04-20T04:18:33.996Z,41.20
2023-04-20T04:21:06.088Z,41.60
2023-04-20T04:23:42.868Z,41.50
2023-04-20T07:07:18.741Z,8.80
2023-04-20T07:09:49.227Z,7.10
2023-04-20T07:57:10.723Z,6.60
2023-04-20T07:59:40.797Z,7.20
2023-04-20T08:02:15.379Z,6.30
2023-04-20T08:04:44.081Z,6.50
2023-04-20T08:07:11.626Z,7.40
2023-04-20T08:09:47.407Z,6.80
2023-04-20T08:12:14.462Z,7.40
2023-04-20T08:14:41.901Z,7.10
2023-04-20T08:17:08.977Z,7.00
2023-04-20T08:19:52.153Z,7.20
2023-04-20T08:22:19.230Z,6.60
2023-04-20T08:24:50.151Z,5.80
2023-04-20T08:27:17.768Z,6.10
2023-04-20T08:29:44.956Z,5.90
2023-04-20T08:32:23.237Z,5.50
2023-04-20T08:34:53.414Z,5.80
2023-04-20T08:37:20.530Z,5.80
2023-04-20T08:39:47.223Z,6.20
2023-04-20T08:42:24.401Z,5.20
2023-04-20T08:44:52.185Z,5.30
2023-04-20T08:47:23.997Z,6.00
2023-04-20T08:49:55.887Z,5.70
2023-04-20T08:52:25.248Z,6.30
2023-04-20T08:54:57.600Z,5.60
2023-04-20T08:57:25.484Z,5.40
2023-04-20T08:59:52.580Z,5.30
2023-04-20T09:02:19.678Z,5.60
2023-04-20T09:04:48.437Z,7.60
2023-04-20T09:07:20.963Z,5.70
2023-04-20T09:12:25.626Z,6.10
2023-04-20T09:14:53.045Z,5.60
2023-04-20T09:17:42.327Z,5.50
2023-04-20T09:20:10.638Z,4.80
2023-04-20T09:22:38.916Z,4.70
2023-04-20T09:25:20.739Z,5.80
2023-04-20T09:28:01.660Z,5.30
2023-04-20T09:30:51.140Z,5.30
2023-04-20T09:33:18.949Z,9.70
2023-04-20T09:35:50.454Z,7.00
2023-04-20T09:38:31.168Z,6.20
2023-04-20T09:41:02.046Z,7.20
2023-04-20T09:43:35.575Z,5.70
2023-04-20T09:46:03.679Z,5.70
2023-04-20T09:48:32.245Z,6.40
2023-04-20T09:51:01.712Z,5.50
2023-04-20T09:53:31.468Z,5.90
2023-04-20T09:56:00.524Z,7.30
2023-04-20T09:58:28.695Z,6.20
2023-04-20T10:00:55.846Z,5.40
2023-04-20T10:03:23.303Z,6.30
2023-04-20T10:05:55.063Z,5.50
2023-04-20T10:08:37.763Z,5.90
2023-04-20T10:11:04.730Z,5.50
2023-04-20T10:13:34.714Z,5.90
2023-04-20T10:16:35.801Z,5.70
2023-04-20T10:19:12.764Z,5.30
2023-04-20T10:21:49.500Z,6.70
2023-04-20T10:24:30.605Z,5.30
2023-04-20T10:26:59.676Z,5.60
2023-04-20T10:29:27.846Z,4.70
2023-04-20T10:31:55.080Z,5.20
2023-04-20T10:34:33.658Z,4.70
2023-04-20T10:37:11.778Z,5.00
2023-04-20T10:39:48.283Z,4.70
2023-04-20T14:05:38.498Z,3.70
2023-04-20T14:08:06.763Z,3.30
2023-04-20T14:10:42.588Z,5.00
2023-04-20T14:13:09.700Z,2.90
2023-04-20T14:15:37.448Z,3.20
2023-04-20T14:20:36.427Z,3.40
2023-04-20T14:23:04.114Z,2.80
2023-04-20T14:25:33.539Z,3.50
2023-04-20T14:28:00.203Z,3.70
2023-04-20T14:30:27.655Z,3.80
2023-04-20T14:32:59.208Z,2.90
2023-04-20T14:35:27.486Z,3.00
2023-04-20T14:37:54.569Z,3.00
2023-04-20T14:40:24.829Z,3.50
2023-04-20T14:42:54.028Z,3.70
2023-04-20T14:45:20.755Z,3.70
2023-04-20T14:47:55.832Z,2.80
2023-04-20T14:50:28.021Z,2.70
2023-04-20T14:52:55.518Z,2.90
2023-04-20T14:55:25.120Z,2.90
2023-04-20T14:57:58.799Z,2.90
2023-04-20T15:00:27.562Z,2.80
2023-04-20T15:02:58.982Z,3.50
2023-04-20T15:07:57.012Z,3.20
2023-04-20T15:10:25.989Z,2.60
2023-04-20T15:12:52.817Z,3.30
2023-04-20T15:15:19.894Z,2.80
2023-04-20T15:17:46.744Z,3.20
2023-04-20T15:20:16.983Z,2.80
2023-04-20T15:22:43.481Z,3.20
2023-04-20T15:25:12.488Z,2.70
2023-04-20T15:27:39.783Z,3.40
2023-04-20T15:30:07.424Z,2.80
2023-04-20T15:32:34.203Z,2.80
2023-04-20T15:35:03.212Z,3.20
2023-04-20T15:37:29.774Z,2.80
2023-04-20T15:40:01.166Z,3.50
2023-04-20T15:42:28.023Z,2.70
2023-04-20T15:44:57.753Z,3.00
2023-04-20T15:47:26.915Z,2.70
2023-04-20T15:50:00.609Z,2.90
2023-04-20T15:52:30.095Z,2.90
2023-04-20T15:54:59.171Z,2.30
2023-04-20T15:57:25.865Z,3.00
2023-04-20T15:59:57.717Z,2.50
2023-04-20T16:02:24.942Z,2.60
2023-04-20T16:04:55.058Z,2.90
2023-04-20T16:07:22.113Z,2.50
2023-04-20T16:09:48.906Z,3.10
2023-04-20T16:12:15.640Z,3.40
2023-04-20T16:14:42.592Z,3.20
2023-04-20T16:17:14.868Z,2.80
2023-04-20T16:19:43.790Z,3.40
2023-04-20T16:22:13.508Z,3.00
2023-04-20T16:24:40.287Z,3.80
2023-04-20T16:27:07.049Z,3.30
2023-04-20T16:29:33.917Z,3.20
2023-04-20T16:32:03.165Z,3.30
2023-04-20T16:34:31.001Z,2.90
2023-04-20T16:36:58.050Z,3.20
2023-04-20T16:39:24.772Z,3.00
2023-04-20T16:41:51.734Z,3.70
2023-04-20T16:44:19.013Z,2.70
2023-04-20T16:46:49.374Z,3.40
2023-04-20T16:49:16.676Z,3.30
2023-04-20T16:51:43.721Z,3.00
2023-04-20T16:54:13.669Z,3.20
2023-04-20T16:56:40.860Z,3.70
2023-04-20T16:59:10.690Z,3.10
2023-04-20T17:01:37.951Z,3.40
2023-04-20T17:04:04.846Z,3.60
2023-04-20T19:45:56.323Z,7.90
2023-04-20T19:48:26.130Z,8.10
2023-04-20T19:50:59.021Z,7.80
2023-04-20T19:53:26.394Z,9.00
2023-04-20T19:55:55.887Z,8.60
2023-04-20T19:58:25.046Z,8.10
2023-04-20T20:00:51.640Z,8.50
2023-04-20T20:03:18.488Z,8.20
2023-04-20T20:05:48.011Z,8.60
2023-04-20T20:08:20.178Z,8.70
2023-04-20T20:10:51.920Z,8.10
2023-04-20T20:13:25.762Z,8.60
2023-04-20T20:15:55.368Z,9.20
2023-04-20T20:18:25.583Z,8.70
2023-04-20T20:21:01.499Z,8.80
2023-04-20T20:23:38.051Z,9.30
2023-04-20T20:26:04.820Z,9.20
2023-04-20T20:28:31.834Z,9.00
2023-04-20T20:31:08.669Z,9.40
2023-04-20T20:33:36.982Z,8.70
2023-04-20T20:36:06.310Z,9.10
2023-04-20T20:38:34.036Z,9.50
2023-04-20T20:41:01.156Z,8.50
2023-04-20T20:43:49.851Z,8.40
2023-04-20T20:46:20.814Z,9.70
2023-04-20T20:49:02.343Z,9.50
2023-04-20T20:51:29.362Z,9.10
2023-04-20T20:53:56.000Z,8.60
2023-04-20T20:56:22.913Z,9.20
2023-04-20T20:58:53.418Z,9.20
2023-04-20T21:01:22.878Z,9.10
2023-04-20T21:03:50.052Z,9.20
2023-04-20T21:06:19.358Z,9.40
2023-04-20T21:08:46.172Z,10.00
2023-04-20T21:11:13.020Z,10.10
2023-04-20T21:13:42.117Z,9.70
2023-04-20T21:16:08.716Z,10.10
2023-04-20T21:18:38.032Z,9.80
2023-04-20T21:21:04.860Z,10.60
2023-04-20T21:23:33.959Z,10.10
2023-04-20T21:26:00.968Z,9.70
2023-04-20T21:28:28.162Z,9.70
2023-04-20T21:30:54.856Z,10.30
2023-04-20T21:33:23.795Z,10.00
2023-04-20T21:35:50.947Z,10.60
2023-04-20T21:38:25.174Z,9.80
2023-04-20T21:40:55.684Z,11.00
2023-04-20T21:43:49.863Z,9.80
2023-04-20T21:46:17.173Z,8.80
2023-04-20T21:48:46.592Z,9.90
2023-04-20T21:51:17.478Z,10.30
2023-04-20T21:53:54.011Z,9.40
2023-04-20T21:56:20.845Z,10.20
2023-04-20T21:58:49.882Z,8.70
2023-04-20T22:01:17.183Z,9.30
2023-04-20T22:03:44.271Z,9.10
2023-04-20T22:06:10.986Z,8.60
2023-04-20T22:08:39.204Z,8.80
2023-04-20T22:11:08.610Z,9.10
2023-04-20T22:13:35.920Z,8.60
2023-04-20T22:16:07.713Z,10.00
2023-04-20T22:18:34.720Z,9.70
2023-04-20T22:21:03.537Z,9.90
2023-04-20T22:23:30.300Z,11.20
2023-04-20T22:25:57.114Z,10.10
2023-04-20T22:28:24.088Z,10.80
2023-04-20T22:30:52.937Z,10.50
2023-04-20T22:33:20.324Z,10.90
2023-04-20T22:35:47.147Z,10.80
2023-04-20T22:38:13.868Z,9.20
2023-04-20T22:40:43.570Z,10.40
2023-04-20T22:43:12.475Z,10.50
2023-04-20T22:45:41.830Z,9.70
2023-04-20T22:48:11.143Z,10.40
2023-04-20T22:50:37.831Z,10.00
2023-04-20T22:53:04.704Z,10.20
2023-04-20T22:55:31.203Z,10.00
2023-04-20T22:58:00.495Z,10.00
2023-04-20T23:00:29.650Z,11.10
2023-04-20T23:02:56.663Z,10.10
2023-04-20T23:05:25.908Z,10.20
2023-04-20T23:07:53.294Z,11.10
2023-04-20T23:10:19.933Z,10.90
2023-04-20T23:12:47.275Z,10.30
2023-04-20T23:15:19.658Z,10.00
2023-04-20T23:17:46.236Z,11.00
2023-04-20T23:20:13.942Z,10.00
2023-04-20T23:22:40.672Z,10.60
2023-04-20T23:25:10.310Z,9.70
2023-04-20T23:27:37.321Z,10.40
2023-04-20T23:30:05.936Z,10.20
2023-04-20T23:32:32.780Z,11.10
2023-04-20T23:34:59.660Z,10.50
2023-04-20T23:37:26.485Z,10.30
2023-04-20T23:39:53.218Z,11.00
2023-04-20T23:42:20.017Z,10.50
2023-04-20T23:44:46.749Z,9.50
2023-04-20T23:47:14.886Z,9.60
2023-04-20T23:49:41.763Z,9.40
2023-04-20T23:52:08.326Z,9.70
2023-04-20T23:54:34.932Z,9.10
2023-04-20T23:57:02.178Z,9.70
2023-04-20T23:59:33.976Z,9.80
